Time;durP1;ratioP1;P1;durP2;ratioP2;P2;SDS_P1;SDS_P2;PMS_P1;PMS_P2;Temp;Humidity;BMP_temperature;BMP_pressure;BME280_temperature;BME280_humidity;BME280_pressure;Samples;Min_cycle;Max_cycle;Signal;HPM_P1;HPM_P2
2021/12/18 00:01:29;;;;;;;;;;;21.80;50.40;;;;;;5034427;28;19927;-67
2021/12/18 00:03:55;;;;;;;;;;;21.70;50.30;;;;;;5040786;28;19912;-68
2021/12/18 00:06:20;;;;;;;;;;;21.80;50.40;;;;;;5035949;28;21376;-66
2021/12/18 00:08:46;;;;;;;;;;;21.70;50.30;;;;;;5039470;28;19919;-65
2021/12/18 00:11:12;;;;;;;;;;;21.70;50.30;;;;;;5041692;28;20426;-65
2021/12/18 00:13:37;;;;;;;;;;;21.70;50.30;;;;;;5041791;28;20322;-66
2021/12/18 00:16:05;;;;;;;;;;;21.70;50.30;;;;;;5038809;28;19995;-66
2021/12/18 00:18:31;;;;;;;;;;;21.70;50.30;;;;;;5033896;28;19919;-65
2021/12/18 00:20:58;;;;;;;;;;;21.70;50.30;;;;;;5035402;28;19916;-68
2021/12/18 00:23:24;;;;;;;;;;;21.70;50.40;;;;;;5039095;28;20135;-65
2021/12/18 00:25:49;;;;;;;;;;;21.70;50.40;;;;;;5039499;28;20440;-69
2021/12/18 00:28:15;;;;;;;;;;;21.70;50.30;;;;;;5035837;28;20251;-68
2021/12/18 00:30:40;;;;;;;;;;;21.70;50.40;;;;;;5038085;28;20621;-66
2021/12/18 00:33:06;;;;;;;;;;;21.60;50.40;;;;;;5041504;28;20009;-67
2021/12/18 00:35:33;;;;;;;;;;;21.60;50.40;;;;;;5035517;28;19912;-67
2021/12/18 00:38:07;;;;;;;;;;;21.60;50.40;;;;;;5032341;28;19912;-66
2021/12/18 00:40:45;;;;;;;;;;;21.60;50.40;;;;;;5040697;28;19908;-67
2021/12/18 00:43:27;;;;;;;;;;;21.60;50.50;;;;;;5039055;28;19912;-65
2021/12/18 00:45:53;;;;;;;;;;;21.60;50.40;;;;;;5032932;28;20050;-65
2021/12/18 00:48:19;;;;;;;;;;;21.60;50.40;;;;;;5038566;28;20012;-65
2021/12/18 00:50:44;;;;;;;;;;;21.60;50.40;;;;;;5033784;28;19912;-66
2021/12/18 00:53:10;;;;;;;;;;;21.60;50.50;;;;;;5036147;28;20057;-65
2021/12/18 00:55:37;;;;;;;;;;;21.60;50.40;;;;;;5038346;28;20522;-66
2021/12/18 00:58:03;;;;;;;;;;;21.60;50.40;;;;;;5036882;28;19913;-65
2021/12/18 01:00:28;;;;;;;;;;;21.50;50.50;;;;;;5037392;28;19923;-67
2021/12/18 01:02:59;;;;;;;;;;;21.50;50.50;;;;;;5039055;28;19915;-66
2021/12/18 01:05:25;;;;;;;;;;;21.50;50.50;;;;;;5037721;28;19967;-66
2021/12/18 01:07:51;;;;;;;;;;;21.50;50.50;;;;;;5035942;28;20422;-68
2021/12/18 01:12:50;;;;;;;;;;;21.50;50.50;;;;;;5040567;28;19958;-65
2021/12/18 01:15:21;;;;;;;;;;;21.50;50.50;;;;;;5038465;28;20011;-66
2021/12/18 01:23:16;;;;;;;;;;;21.50;50.50;;;;;;5040974;28;20511;-67
2021/12/18 01:25:41;;;;;;;;;;;21.50;50.50;;;;;;5041859;28;19977;-68
2021/12/18 01:28:07;;;;;;;;;;;21.50;50.50;;;;;;5044293;28;20007;-65
2021/12/18 01:30:33;;;;;;;;;;;21.50;50.40;;;;;;5037674;28;20305;-65
2021/12/18 01:32:58;;;;;;;;;;;21.40;50.40;;;;;;5039478;28;19988;-65
2021/12/18 01:35:24;;;;;;;;;;;21.40;50.40;;;;;;5039434;28;19916;-66
2021/12/18 01:37:50;;;;;;;;;;;21.40;50.40;;;;;;5041903;28;19948;-65
2021/12/18 01:40:17;;;;;;;;;;;21.40;50.40;;;;;;5039737;28;19913;-66
2021/12/18 01:53:11;;;;;;;;;;;21.40;50.40;;;;;;5045872;28;19920;-65
2021/12/18 01:55:37;;;;;;;;;;;21.40;50.40;;;;;;5043512;28;19962;-66
2021/12/18 01:58:04;;;;;;;;;;;21.30;50.40;;;;;;5047075;28;20408;-68
2021/12/18 02:00:31;;;;;;;;;;;21.30;50.30;;;;;;5041869;28;19931;-66
2021/12/18 02:02:56;;;;;;;;;;;21.40;50.40;;;;;;5044986;28;19920;-68
2021/12/18 02:05:22;;;;;;;;;;;21.30;50.30;;;;;;5040100;28;19913;-67
2021/12/18 02:07:48;;;;;;;;;;;21.30;50.40;;;;;;5042345;28;19948;-66
2021/12/18 02:10:23;;;;;;;;;;;21.30;50.30;;;;;;5047723;28;19981;-65
2021/12/18 02:20:53;;;;;;;;;;;21.30;50.30;;;;;;5040250;28;19923;-65
2021/12/18 02:23:19;;;;;;;;;;;21.20;50.20;;;;;;5046351;28;19908;-68
2021/12/18 02:25:45;;;;;;;;;;;21.20;50.20;;;;;;5048517;28;20337;-68
2021/12/18 02:28:17;;;;;;;;;;;21.20;50.20;;;;;;5043495;28;20352;-65
2021/12/18 02:30:43;;;;;;;;;;;21.20;50.20;;;;;;5043437;28;19920;-66
2021/12/18 02:33:09;;;;;;;;;;;21.20;50.20;;;;;;5046254;28;19916;-66
2021/12/18 02:35:42;;;;;;;;;;;21.20;50.20;;;;;;5044738;28;20568;-67
2021/12/18 02:38:12;;;;;;;;;;;21.20;50.20;;;;;;5046110;28;20546;-68
2021/12/18 02:40:56;;;;;;;;;;;21.20;50.20;;;;;;5043932;28;19999;-67
2021/12/18 02:43:33;;;;;;;;;;;21.20;50.20;;;;;;5044785;28;20012;-67
2021/12/18 02:45:59;;;;;;;;;;;21.20;50.20;;;;;;5044578;28;19973;-68
2021/12/18 02:48:26;;;;;;;;;;;21.10;50.20;;;;;;5036362;28;19917;-68
2021/12/18 02:50:52;;;;;;;;;;;21.20;50.20;;;;;;5041370;28;19920;-66
2021/12/18 02:53:17;;;;;;;;;;;21.10;50.20;;;;;;5045354;28;19917;-66
2021/12/18 02:55:42;;;;;;;;;;;21.10;50.20;;;;;;5040737;28;20051;-68
2021/12/18 02:58:08;;;;;;;;;;;21.10;50.20;;;;;;5042479;28;19917;-65
2021/12/18 03:00:33;;;;;;;;;;;21.10;50.70;;;;;;5039999;28;20000;-65
2021/12/18 03:03:05;;;;;;;;;;;21.10;50.20;;;;;;5042981;28;19912;-67
2021/12/18 03:05:37;;;;;;;;;;;21.10;50.20;;;;;;5034371;28;19913;-66
2021/12/18 03:08:11;;;;;;;;;;;21.10;50.20;;;;;;5040916;28;19916;-66
2021/12/18 03:24:23;;;;;;;;;;;21.00;50.20;;;;;;5043498;28;19908;-65
2021/12/18 03:26:49;;;;;;;;;;;21.00;50.10;;;;;;5044232;28;20000;-66
2021/12/18 03:29:14;;;;;;;;;;;21.00;50.20;;;;;;5040880;28;20027;-67
2021/12/18 03:31:40;;;;;;;;;;;21.00;50.10;;;;;;5044544;28;19917;-65
2021/12/18 03:34:09;;;;;;;;;;;21.00;50.20;;;;;;5044822;28;19915;-65
2021/12/18 03:36:34;;;;;;;;;;;21.00;50.20;;;;;;5041113;28;19930;-65
2021/12/18 03:39:00;;;;;;;;;;;21.00;50.10;;;;;;5044517;28;19924;-65
2021/12/18 03:41:25;;;;;;;;;;;21.00;50.20;;;;;;5041662;28;19942;-67
2021/12/18 03:43:51;;;;;;;;;;;21.00;50.20;;;;;;5043801;28;19909;-68
2021/12/18 03:46:16;;;;;;;;;;;21.00;50.20;;;;;;5045378;28;20308;-68
2021/12/18 03:48:42;;;;;;;;;;;21.00;50.20;;;;;;5046286;28;19916;-67
2021/12/18 03:51:08;;;;;;;;;;;21.00;50.20;;;;;;5037947;28;20377;-66
2021/12/18 03:53:33;;;;;;;;;;;21.00;50.20;;;;;;5041315;28;19921;-66
2021/12/18 03:56:00;;;;;;;;;;;20.90;50.20;;;;;;5045715;28;20000;-68
2021/12/18 03:58:25;;;;;;;;;;;20.90;50.20;;;;;;5044611;28;19920;-66
2021/12/18 04:00:51;;;;;;;;;;;20.90;50.20;;;;;;5043904;28;19921;-66
2021/12/18 04:03:16;;;;;;;;;;;20.90;50.20;;;;;;5043482;28;19909;-66
2021/12/18 04:05:42;;;;;;;;;;;20.90;50.20;;;;;;5042618;28;19912;-65
2021/12/18 04:08:10;;;;;;;;;;;20.90;50.20;;;;;;5039059;28;19912;-66
2021/12/18 04:10:39;;;;;;;;;;;20.90;50.20;;;;;;5044939;28;20312;-66
2021/12/18 04:13:05;;;;;;;;;;;20.90;50.20;;;;;;5042925;28;19919;-66
2021/12/18 04:15:30;;;;;;;;;;;20.90;50.20;;;;;;5045012;28;19908;-65
2021/12/18 04:17:56;;;;;;;;;;;20.90;50.20;;;;;;5044150;28;19905;-66
2021/12/18 04:20:22;;;;;;;;;;;20.90;50.20;;;;;;5044053;28;19967;-68
2021/12/18 04:22:47;;;;;;;;;;;20.80;50.20;;;;;;5041211;28;19923;-68
2021/12/18 04:25:13;;;;;;;;;;;20.90;50.30;;;;;;5045828;28;19904;-68
2021/12/18 04:27:38;;;;;;;;;;;20.80;50.20;;;;;;5040191;28;19913;-66
2021/12/18 04:30:04;;;;;;;;;;;20.80;50.80;;;;;;5042902;28;19924;-66
2021/12/18 04:32:29;;;;;;;;;;;20.80;50.20;;;;;;5042428;28;19923;-66
2021/12/18 04:34:55;;;;;;;;;;;20.80;50.30;;;;;;5043376;28;19966;-66
2021/12/18 04:37:21;;;;;;;;;;;20.80;50.30;;;;;;5037814;28;19992;-68
2021/12/18 04:39:50;;;;;;;;;;;20.80;50.30;;;;;;5041086;28;19916;-65
2021/12/18 04:42:16;;;;;;;;;;;20.80;50.30;;;;;;5040212;28;19920;-66
2021/12/18 04:44:41;;;;;;;;;;;20.80;50.30;;;;;;5042541;28;20376;-67
2021/12/18 04:47:07;;;;;;;;;;;20.80;50.80;;;;;;5043025;28;19913;-65
2021/12/18 04:49:32;;;;;;;;;;;20.80;50.40;;;;;;5042313;28;19916;-65
2021/12/18 04:51:58;;;;;;;;;;;20.80;50.40;;;;;;5040921;28;19947;-65
2021/12/18 04:54:23;;;;;;;;;;;20.80;50.40;;;;;;5044357;28;20261;-65
2021/12/18 04:56:49;;;;;;;;;;;20.80;50.40;;;;;;5042128;28;19913;-68
2021/12/18 04:59:15;;;;;;;;;;;20.80;50.40;;;;;;5041261;28;19967;-67
2021/12/18 05:01:40;;;;;;;;;;;20.70;50.30;;;;;;5041115;28;19917;-65
2021/12/18 05:04:09;;;;;;;;;;;20.70;50.40;;;;;;5036705;28;19913;-68
2021/12/18 05:06:37;;;;;;;;;;;20.80;50.40;;;;;;5034888;28;19922;-65
2021/12/18 05:09:03;;;;;;;;;;;20.70;50.40;;;;;;5038226;28;19908;-67
2021/12/18 05:11:28;;;;;;;;;;;20.70;50.40;;;;;;5044844;28;19908;-65
2021/12/18 05:13:54;;;;;;;;;;;20.70;50.40;;;;;;5046711;28;19924;-67
2021/12/18 05:16:19;;;;;;;;;;;20.70;50.40;;;;;;5041755;28;19935;-66
2021/12/18 05:18:45;;;;;;;;;;;20.70;50.40;;;;;;5049452;28;19912;-65
2021/12/18 05:21:10;;;;;;;;;;;20.70;50.40;;;;;;5044421;28;19923;-65
2021/12/18 05:23:36;;;;;;;;;;;20.70;50.40;;;;;;5047059;28;20649;-67
2021/12/18 05:26:01;;;;;;;;;;;20.70;50.50;;;;;;5048863;28;20384;-65
2021/12/18 05:28:27;;;;;;;;;;;20.70;50.50;;;;;;5049416;28;20441;-64
2021/12/18 05:30:52;;;;;;;;;;;20.70;50.50;;;;;;5044073;28;19921;-65
2021/12/18 05:33:18;;;;;;;;;;;20.70;50.50;;;;;;5047253;28;20019;-67
2021/12/18 05:35:43;;;;;;;;;;;20.70;50.50;;;;;;5040358;28;19919;-65
2021/12/18 05:38:09;;;;;;;;;;;20.70;50.50;;;;;;5047179;28;20053;-65
2021/12/18 05:40:37;;;;;;;;;;;20.70;50.50;;;;;;5042525;28;19986;-65
2021/12/18 05:43:03;;;;;;;;;;;20.70;50.60;;;;;;5048363;28;19924;-65
2021/12/18 05:45:28;;;;;;;;;;;20.60;50.50;;;;;;5044347;28;19912;-68
2021/12/18 05:47:54;;;;;;;;;;;20.70;50.60;;;;;;5047915;28;19913;-64
2021/12/18 05:50:20;;;;;;;;;;;20.70;50.60;;;;;;5046274;28;20008;-65
2021/12/18 05:52:47;;;;;;;;;;;20.70;50.60;;;;;;5043792;28;19919;-67
2021/12/18 05:55:14;;;;;;;;;;;20.70;50.60;;;;;;5048196;28;20216;-65
2021/12/18 05:57:40;;;;;;;;;;;20.60;50.60;;;;;;5043868;28;19934;-65
2021/12/18 06:00:06;;;;;;;;;;;20.60;50.60;;;;;;5047949;28;19917;-68
2021/12/18 06:02:32;;;;;;;;;;;20.60;50.60;;;;;;5045612;28;19923;-68
2021/12/18 06:04:57;;;;;;;;;;;20.60;50.60;;;;;;5047443;28;20221;-65
2021/12/18 06:07:31;;;;;;;;;;;20.60;50.60;;;;;;5042946;28;19915;-66
2021/12/18 06:09:57;;;;;;;;;;;20.60;50.70;;;;;;5047733;28;19918;-69
2021/12/18 06:12:23;;;;;;;;;;;20.60;50.70;;;;;;5048305;28;19909;-68
2021/12/18 06:14:49;;;;;;;;;;;20.60;50.70;;;;;;5046075;28;20386;-66
2021/12/18 06:17:14;;;;;;;;;;;20.60;50.70;;;;;;5047123;28;19916;-65
2021/12/18 06:19:40;;;;;;;;;;;20.60;50.70;;;;;;5046854;28;19912;-66
2021/12/18 06:22:05;;;;;;;;;;;20.60;50.70;;;;;;5040330;28;19978;-68
2021/12/18 06:24:31;;;;;;;;;;;20.60;50.80;;;;;;5048358;28;20316;-65
2021/12/18 06:26:56;;;;;;;;;;;20.60;50.80;;;;;;5047215;28;19934;-66
2021/12/18 06:29:22;;;;;;;;;;;20.50;50.80;;;;;;5049547;28;20422;-67
2021/12/18 06:31:48;;;;;;;;;;;20.50;50.80;;;;;;5047661;28;19970;-66
2021/12/18 06:34:14;;;;;;;;;;;20.60;50.80;;;;;;5045456;28;20434;-68
2021/12/18 06:36:39;;;;;;;;;;;20.50;50.80;;;;;;5044315;28;19912;-65
2021/12/18 06:39:10;;;;;;;;;;;20.50;50.80;;;;;;5047419;28;19995;-66
2021/12/18 06:41:36;;;;;;;;;;;20.50;50.80;;;;;;5043794;28;19917;-66
2021/12/18 06:44:02;;;;;;;;;;;20.50;50.80;;;;;;5045701;28;19913;-66
2021/12/18 06:46:27;;;;;;;;;;;20.50;50.80;;;;;;5047001;28;19939;-68
2021/12/18 06:48:53;;;;;;;;;;;20.50;50.80;;;;;;5043716;28;19915;-64
2021/12/18 06:51:19;;;;;;;;;;;20.50;50.80;;;;;;5041900;28;19924;-66
2021/12/18 06:53:45;;;;;;;;;;;20.50;50.90;;;;;;5045602;28;19937;-68
2021/12/18 06:56:10;;;;;;;;;;;20.50;50.80;;;;;;5046090;28;19916;-67
2021/12/18 06:58:36;;;;;;;;;;;20.50;50.90;;;;;;5042984;28;19919;-65
2021/12/18 07:01:02;;;;;;;;;;;20.50;50.90;;;;;;5042055;28;20395;-67
2021/12/18 07:03:27;;;;;;;;;;;20.50;50.90;;;;;;5044724;28;19913;-68
2021/12/18 07:05:53;;;;;;;;;;;20.50;50.90;;;;;;5041552;28;20392;-68
2021/12/18 07:08:18;;;;;;;;;;;20.50;50.90;;;;;;5042675;28;19924;-65
2021/12/18 07:10:44;;;;;;;;;;;20.50;51.00;;;;;;5044382;28;19915;-65
2021/12/18 07:13:10;;;;;;;;;;;20.40;51.40;;;;;;5045366;28;20360;-65
2021/12/18 07:15:36;;;;;;;;;;;20.40;50.90;;;;;;5042127;28;20050;-68
2021/12/18 07:18:02;;;;;;;;;;;20.40;50.90;;;;;;5045623;28;20371;-65
2021/12/18 07:20:27;;;;;;;;;;;20.40;50.90;;;;;;5039550;28;19920;-67
2021/12/18 07:22:53;;;;;;;;;;;20.40;50.90;;;;;;5041752;28;19912;-66
2021/12/18 07:25:19;;;;;;;;;;;20.40;51.00;;;;;;5041574;28;19912;-67
2021/12/18 07:27:45;;;;;;;;;;;20.40;51.00;;;;;;5041595;28;19908;-66
2021/12/18 07:30:11;;;;;;;;;;;20.40;51.00;;;;;;5042253;28;20510;-67
2021/12/18 07:32:37;;;;;;;;;;;20.40;51.00;;;;;;5041701;28;19916;-67
2021/12/18 07:35:03;;;;;;;;;;;20.40;51.00;;;;;;5039322;28;20007;-66
2021/12/18 07:37:29;;;;;;;;;;;20.40;51.00;;;;;;5040552;28;20328;-67
2021/12/18 07:39:55;;;;;;;;;;;20.40;51.00;;;;;;5046104;28;19986;-65
2021/12/18 07:42:20;;;;;;;;;;;20.40;51.00;;;;;;5044398;28;20317;-64
2021/12/18 07:44:46;;;;;;;;;;;20.40;51.00;;;;;;5042777;28;19919;-67
2021/12/18 07:47:11;;;;;;;;;;;20.40;51.00;;;;;;5041105;28;19955;-64
2021/12/18 07:49:37;;;;;;;;;;;20.40;51.00;;;;;;5043235;28;19923;-65
2021/12/18 07:52:04;;;;;;;;;;;20.40;51.00;;;;;;5034971;28;19915;-66
2021/12/18 07:54:30;;;;;;;;;;;20.40;51.00;;;;;;5038875;28;20447;-66
2021/12/18 07:56:55;;;;;;;;;;;20.40;50.90;;;;;;5036124;28;20110;-66
2021/12/18 07:59:21;;;;;;;;;;;20.40;50.90;;;;;;5039838;28;19978;-67
2021/12/18 08:01:46;;;;;;;;;;;20.40;51.00;;;;;;5034477;28;19920;-65
2021/12/18 08:04:12;;;;;;;;;;;20.40;51.00;;;;;;5036025;28;19912;-66
2021/12/18 08:06:38;;;;;;;;;;;20.40;51.00;;;;;;5032746;28;20019;-67
2021/12/18 08:09:03;;;;;;;;;;;20.40;50.90;;;;;;5040865;28;19936;-65
2021/12/18 08:11:29;;;;;;;;;;;20.30;50.90;;;;;;5041595;28;19913;-65
2021/12/18 08:13:54;;;;;;;;;;;20.30;50.90;;;;;;5042978;28;19913;-65
2021/12/18 08:16:20;;;;;;;;;;;20.40;50.90;;;;;;5042575;28;19912;-64
2021/12/18 08:18:45;;;;;;;;;;;20.40;50.90;;;;;;5040866;28;19970;-67
2021/12/18 08:21:11;;;;;;;;;;;20.30;50.90;;;;;;5037510;28;20054;-65
2021/12/18 08:23:36;;;;;;;;;;;20.30;50.90;;;;;;5042482;28;19920;-67
2021/12/18 08:26:02;;;;;;;;;;;20.30;50.90;;;;;;5038428;28;19908;-67
2021/12/18 08:28:28;;;;;;;;;;;20.30;50.90;;;;;;5042661;28;19955;-68
2021/12/18 08:30:53;;;;;;;;;;;20.30;50.90;;;;;;5039683;28;19960;-66
2021/12/18 08:33:19;;;;;;;;;;;20.30;50.90;;;;;;5042170;28;19930;-66
2021/12/18 08:35:44;;;;;;;;;;;20.30;51.00;;;;;;5040884;28;19912;-68
2021/12/18 08:38:10;;;;;;;;;;;20.30;50.90;;;;;;5041495;28;19912;-68
2021/12/18 08:40:36;;;;;;;;;;;20.30;50.90;;;;;;5041065;28;20356;-64
2021/12/18 08:43:02;;;;;;;;;;;20.30;51.00;;;;;;5041429;28;19931;-66
2021/12/18 08:45:28;;;;;;;;;;;20.30;51.00;;;;;;5042304;28;20230;-66
2021/12/18 08:47:55;;;;;;;;;;;20.30;51.00;;;;;;5040954;28;20343;-67
2021/12/18 08:50:20;;;;;;;;;;;20.30;51.00;;;;;;5038482;28;20019;-68
2021/12/18 08:52:46;;;;;;;;;;;20.30;51.00;;;;;;5034404;28;19913;-65
2021/12/18 08:55:12;;;;;;;;;;;20.30;51.00;;;;;;5039027;28;19920;-65
2021/12/18 08:57:38;;;;;;;;;;;20.30;51.00;;;;;;5038789;28;19917;-64
2021/12/18 09:00:05;;;;;;;;;;;20.30;51.00;;;;;;5025549;28;20000;-67
2021/12/18 09:02:30;;;;;;;;;;;20.30;51.10;;;;;;5032416;28;19917;-65
2021/12/18 09:04:56;;;;;;;;;;;20.30;51.10;;;;;;5039813;28;19924;-66
2021/12/18 09:07:22;;;;;;;;;;;20.30;51.00;;;;;;5039149;28;20327;-68
2021/12/18 09:09:48;;;;;;;;;;;20.30;51.10;;;;;;5039604;28;20005;-67
2021/12/18 09:12:13;;;;;;;;;;;20.30;51.10;;;;;;5041978;28;19988;-66
2021/12/18 09:14:39;;;;;;;;;;;20.30;51.10;;;;;;5037744;28;19919;-66
2021/12/18 09:17:07;;;;;;;;;;;20.30;51.10;;;;;;5038433;28;19923;-67
2021/12/18 09:19:33;;;;;;;;;;;20.20;51.10;;;;;;5038988;28;19912;-66
2021/12/18 09:21:59;;;;;;;;;;;20.30;51.10;;;;;;5037272;28;19916;-66
2021/12/18 09:24:24;;;;;;;;;;;20.30;51.10;;;;;;5039317;28;20074;-66
2021/12/18 09:26:51;;;;;;;;;;;20.20;51.10;;;;;;5036392;28;19985;-65
2021/12/18 09:29:18;;;;;;;;;;;20.20;51.10;;;;;;5037250;28;19975;-67
2021/12/18 09:31:43;;;;;;;;;;;20.20;51.10;;;;;;5033910;28;19943;-66
2021/12/18 09:34:08;;;;;;;;;;;20.20;51.10;;;;;;5041215;28;19924;-67
2021/12/18 09:36:34;;;;;;;;;;;20.20;51.10;;;;;;5033260;28;20312;-66
2021/12/18 09:39:03;;;;;;;;;;;20.20;51.10;;;;;;5038418;28;19912;-67
2021/12/18 09:41:29;;;;;;;;;;;20.20;51.20;;;;;;5037785;28;20661;-67
2021/12/18 09:43:54;;;;;;;;;;;20.20;51.10;;;;;;5029150;28;19927;-67
2021/12/18 09:46:19;;;;;;;;;;;20.20;51.20;;;;;;5037353;28;19927;-68
2021/12/18 09:48:45;;;;;;;;;;;20.20;51.20;;;;;;5035493;28;20011;-66
2021/12/18 09:51:21;;;;;;;;;;;20.20;51.20;;;;;;5034239;28;20114;-67
2021/12/18 09:53:47;;;;;;;;;;;20.20;51.20;;;;;;5040167;28;19912;-65
2021/12/18 09:56:13;;;;;;;;;;;20.20;51.20;;;;;;5042556;28;20022;-66
2021/12/18 09:58:38;;;;;;;;;;;20.20;51.20;;;;;;5036780;28;19917;-67
2021/12/18 10:01:04;;;;;;;;;;;20.20;51.20;;;;;;5037520;28;19921;-65
2021/12/18 10:03:51;;;;;;;;;;;20.20;51.20;;;;;;5038307;28;20245;-66
2021/12/18 10:06:40;;;;;;;;;;;20.20;51.20;;;;;;5036153;28;19912;-64
2021/12/18 10:09:07;;;;;;;;;;;20.20;51.20;;;;;;5043599;28;19913;-68
2021/12/18 10:11:32;;;;;;;;;;;20.20;51.30;;;;;;5033032;28;19943;-65
2021/12/18 10:13:59;;;;;;;;;;;20.20;51.30;;;;;;5042409;28;19982;-68
2021/12/18 10:16:27;;;;;;;;;;;20.20;51.30;;;;;;5044284;28;19916;-65
2021/12/18 10:18:53;;;;;;;;;;;20.20;51.30;;;;;;5043275;28;19920;-67
2021/12/18 10:21:23;;;;;;;;;;;20.20;51.40;;;;;;5038314;28;19916;-65
2021/12/18 10:23:50;;;;;;;;;;;20.20;51.30;;;;;;5041898;28;19948;-67
2021/12/18 10:26:30;;;;;;;;;;;20.20;51.30;;;;;;5039835;28;19920;-67
2021/12/18 10:28:56;;;;;;;;;;;20.20;51.40;;;;;;5036444;28;20083;-68
2021/12/18 10:31:38;;;;;;;;;;;20.20;51.40;;;;;;5040001;28;19916;-68
2021/12/18 10:34:22;;;;;;;;;;;20.20;51.40;;;;;;5033047;28;19924;-64
2021/12/18 10:37:05;;;;;;;;;;;20.20;51.40;;;;;;5038736;28;19976;-68
2021/12/18 10:39:31;;;;;;;;;;;20.20;51.40;;;;;;5035051;28;19909;-67
2021/12/18 10:41:56;;;;;;;;;;;20.20;51.40;;;;;;5040635;28;20396;-67
2021/12/18 10:44:22;;;;;;;;;;;20.20;51.40;;;;;;5044151;28;19913;-65
2021/12/18 10:46:52;;;;;;;;;;;20.20;51.40;;;;;;5043479;28;21634;-65
2021/12/18 10:49:19;;;;;;;;;;;20.20;51.40;;;;;;5042421;28;19988;-66
2021/12/18 10:51:45;;;;;;;;;;;20.20;51.40;;;;;;5039333;28;20064;-67
2021/12/18 10:54:18;;;;;;;;;;;20.10;51.40;;;;;;5045162;28;19913;-65
2021/12/18 10:56:46;;;;;;;;;;;20.20;51.40;;;;;;5040192;28;19974;-67
2021/12/18 10:59:22;;;;;;;;;;;20.10;51.40;;;;;;5039120;28;19913;-66
2021/12/18 11:01:51;;;;;;;;;;;20.10;51.40;;;;;;5041704;28;20039;-64
2021/12/18 11:04:27;;;;;;;;;;;20.10;51.40;;;;;;5038051;28;21073;-65
2021/12/18 11:06:55;;;;;;;;;;;20.10;51.40;;;;;;5036612;28;20683;-64
2021/12/18 11:09:29;;;;;;;;;;;20.10;51.40;;;;;;5037244;28;19908;-68
2021/12/18 11:14:40;;;;;;;;;;;20.10;51.40;;;;;;5036983;28;19924;-65
2021/12/18 11:17:07;;;;;;;;;;;20.10;51.50;;;;;;5041121;28;19965;-66
2021/12/18 11:19:33;;;;;;;;;;;20.10;51.40;;;;;;5036105;28;20443;-68
2021/12/18 11:22:10;;;;;;;;;;;20.10;51.40;;;;;;5037683;28;20015;-66
2021/12/18 11:24:43;;;;;;;;;;;20.10;51.40;;;;;;5037959;28;19912;-67
2021/12/18 11:27:17;;;;;;;;;;;20.10;51.50;;;;;;5035888;28;19916;-66
2021/12/18 11:29:47;;;;;;;;;;;20.10;51.40;;;;;;5037391;28;20392;-66
2021/12/18 11:32:18;;;;;;;;;;;20.10;51.40;;;;;;5050671;28;19913;-65
2021/12/18 11:34:44;;;;;;;;;;;20.10;51.50;;;;;;5035346;28;19980;-65
2021/12/18 11:37:11;;;;;;;;;;;20.10;51.50;;;;;;5028559;28;21170;-66
2021/12/18 11:39:38;;;;;;;;;;;20.20;52.00;;;;;;5035571;28;19912;-65
2021/12/18 11:42:04;;;;;;;;;;;20.30;52.00;;;;;;5034697;28;19921;-65
2021/12/18 11:44:29;;;;;;;;;;;20.40;51.70;;;;;;5032844;28;19912;-68
2021/12/18 11:46:56;;;;;;;;;;;20.50;51.50;;;;;;5031907;28;19919;-68
2021/12/18 11:49:25;;;;;;;;;;;20.60;51.30;;;;;;5033682;28;20015;-64
2021/12/18 11:52:01;;;;;;;;;;;20.80;51.10;;;;;;5032181;28;20359;-67
2021/12/18 11:54:38;;;;;;;;;;;20.90;50.90;;;;;;5032764;28;19917;-67
2021/12/18 11:57:03;;;;;;;;;;;21.00;50.70;;;;;;5029686;28;19924;-65
2021/12/18 11:59:42;;;;;;;;;;;21.20;50.40;;;;;;5032514;28;19917;-67
2021/12/18 12:02:11;;;;;;;;;;;21.30;50.30;;;;;;5032157;28;20673;-66
2021/12/18 12:04:56;;;;;;;;;;;21.50;50.10;;;;;;5028046;28;20576;-67
2021/12/18 12:07:23;;;;;;;;;;;21.60;49.80;;;;;;5026462;28;19909;-67
2021/12/18 12:10:12;;;;;;;;;;;21.60;49.90;;;;;;5034084;28;20804;-67
2021/12/18 12:12:49;;;;;;;;;;;21.70;50.10;;;;;;5034100;28;20004;-67
2021/12/18 12:15:15;;;;;;;;;;;21.90;49.80;;;;;;5031253;28;20424;-67
2021/12/18 12:17:54;;;;;;;;;;;22.10;49.40;;;;;;5035302;28;19944;-67
2021/12/18 12:20:43;;;;;;;;;;;22.20;49.10;;;;;;5035608;28;19951;-66
2021/12/18 12:23:10;;;;;;;;;;;22.20;49.00;;;;;;5025232;28;19991;-67
2021/12/18 12:25:44;;;;;;;;;;;22.30;48.90;;;;;;5030378;28;20470;-65
2021/12/18 12:28:11;;;;;;;;;;;22.20;48.90;;;;;;5035551;28;19912;-66
2021/12/18 12:30:43;;;;;;;;;;;22.20;49.10;;;;;;5034966;28;19932;-65
2021/12/18 12:33:10;;;;;;;;;;;22.10;49.10;;;;;;5035842;28;19948;-66
2021/12/18 12:35:55;;;;;;;;;;;22.10;49.00;;;;;;5029382;28;19917;-66
2021/12/18 12:38:24;;;;;;;;;;;22.10;49.10;;;;;;5036210;28;20007;-66
2021/12/18 12:40:50;;;;;;;;;;;22.10;49.20;;;;;;5035215;28;20007;-65
2021/12/18 12:43:21;;;;;;;;;;;22.10;49.20;;;;;;5036346;28;20388;-65
2021/12/18 12:45:49;;;;;;;;;;;22.10;49.20;;;;;;5029612;28;20373;-67
2021/12/18 12:48:16;;;;;;;;;;;22.10;49.20;;;;;;5027089;28;19924;-66
2021/12/18 12:50:42;;;;;;;;;;;22.10;49.20;;;;;;5039758;28;19908;-65
2021/12/18 12:53:08;;;;;;;;;;;22.00;49.20;;;;;;5028683;28;20364;-67
2021/12/18 12:55:38;;;;;;;;;;;22.10;49.30;;;;;;5029797;28;21077;-66
2021/12/18 12:58:14;;;;;;;;;;;22.00;49.20;;;;;;5036162;28;19913;-65
2021/12/18 13:00:40;;;;;;;;;;;22.00;49.20;;;;;;5026296;28;19993;-65
2021/12/18 13:03:09;;;;;;;;;;;22.00;49.20;;;;;;5035121;28;19912;-66
2021/12/18 13:05:44;;;;;;;;;;;22.00;49.10;;;;;;5026137;28;19920;-66
2021/12/18 13:08:10;;;;;;;;;;;22.00;49.20;;;;;;5024025;28;19920;-66
2021/12/18 13:10:37;;;;;;;;;;;22.00;49.20;;;;;;5026561;28;19916;-64
2021/12/18 13:13:05;;;;;;;;;;;22.00;49.20;;;;;;5029124;28;19917;-66
2021/12/18 13:15:49;;;;;;;;;;;22.00;49.20;;;;;;5028207;28;19919;-66
2021/12/18 13:18:15;;;;;;;;;;;22.00;49.20;;;;;;5034780;28;20265;-66
2021/12/18 13:20:40;;;;;;;;;;;22.00;49.10;;;;;;5026177;28;20038;-67
2021/12/18 13:23:06;;;;;;;;;;;22.00;49.10;;;;;;5029809;28;20661;-65
2021/12/18 13:25:31;;;;;;;;;;;22.00;49.10;;;;;;5028447;28;20300;-66
2021/12/18 13:28:04;;;;;;;;;;;22.00;49.10;;;;;;5032044;28;20576;-67
2021/12/18 13:30:33;;;;;;;;;;;22.00;49.20;;;;;;5026270;28;19948;-66
2021/12/18 13:33:00;;;;;;;;;;;22.00;49.30;;;;;;5035825;28;20169;-66
2021/12/18 13:35:27;;;;;;;;;;;22.00;49.20;;;;;;5035812;28;19948;-66
2021/12/18 13:37:56;;;;;;;;;;;22.00;49.40;;;;;;5036453;28;19923;-67
2021/12/18 13:40:22;;;;;;;;;;;22.00;49.50;;;;;;5034385;28;20390;-66
2021/12/18 13:42:47;;;;;;;;;;;22.00;49.60;;;;;;5036819;28;19917;-66
2021/12/18 13:45:13;;;;;;;;;;;22.00;49.60;;;;;;5036971;28;19935;-65
2021/12/18 13:47:41;;;;;;;;;;;22.00;49.60;;;;;;5032653;28;20363;-68
2021/12/18 13:50:06;;;;;;;;;;;22.00;49.50;;;;;;5033845;28;19991;-65
2021/12/18 13:52:42;;;;;;;;;;;22.00;49.50;;;;;;5034328;28;19921;-67
2021/12/18 13:55:27;;;;;;;;;;;22.00;49.60;;;;;;5034582;28;19917;-66
2021/12/18 13:57:59;;;;;;;;;;;22.00;49.40;;;;;;5035793;28;20027;-67
2021/12/18 14:00:24;;;;;;;;;;;22.00;49.20;;;;;;5031796;28;19932;-67
2021/12/18 14:02:50;;;;;;;;;;;22.00;49.00;;;;;;5037050;28;20433;-68
2021/12/18 14:05:15;;;;;;;;;;;22.10;49.10;;;;;;5032987;28;20878;-66
2021/12/18 14:07:42;;;;;;;;;;;22.10;49.00;;;;;;5034907;28;20004;-67
2021/12/18 14:10:09;;;;;;;;;;;22.10;49.10;;;;;;5032871;28;19917;-68
2021/12/18 14:12:34;;;;;;;;;;;22.10;49.20;;;;;;5037558;28;19925;-66
2021/12/18 14:15:00;;;;;;;;;;;22.10;48.90;;;;;;5030528;28;20299;-67
2021/12/18 14:17:25;;;;;;;;;;;22.10;49.00;;;;;;5034320;28;19963;-67
2021/12/18 14:19:53;;;;;;;;;;;22.10;49.00;;;;;;5036075;28;19913;-67
2021/12/18 14:22:28;;;;;;;;;;;22.10;48.90;;;;;;5025289;28;19970;-68
2021/12/18 14:25:00;;;;;;;;;;;22.10;48.90;;;;;;5028855;28;20012;-65
2021/12/18 14:27:36;;;;;;;;;;;22.10;48.90;;;;;;5027932;28;19955;-67
2021/12/18 14:30:02;;;;;;;;;;;22.10;48.90;;;;;;5032869;28;19923;-68
2021/12/18 14:32:27;;;;;;;;;;;22.20;48.80;;;;;;5031964;28;20248;-66
2021/12/18 14:35:00;;;;;;;;;;;22.20;48.80;;;;;;5030668;28;20926;-67
2021/12/18 14:37:26;;;;;;;;;;;22.20;48.90;;;;;;5032147;28;19928;-68
2021/12/18 14:39:53;;;;;;;;;;;22.20;48.80;;;;;;5037878;28;19916;-65
2021/12/18 14:42:28;;;;;;;;;;;22.20;48.90;;;;;;5031516;28;20023;-65
2021/12/18 14:44:56;;;;;;;;;;;22.20;48.90;;;;;;5049405;28;19913;-66
2021/12/18 14:47:23;;;;;;;;;;;22.10;48.90;;;;;;5048295;28;19913;-68
2021/12/18 14:49:58;;;;;;;;;;;22.10;48.90;;;;;;5032421;28;20318;-67
2021/12/18 14:52:24;;;;;;;;;;;22.10;49.00;;;;;;5027796;28;19913;-65
2021/12/18 14:54:52;;;;;;;;;;;22.10;49.10;;;;;;5034059;28;19913;-67
2021/12/18 14:57:21;;;;;;;;;;;22.20;49.10;;;;;;5036677;28;19943;-67
2021/12/18 14:59:47;;;;;;;;;;;22.30;49.00;;;;;;5033521;28;19919;-65
2021/12/18 15:02:12;;;;;;;;;;;22.40;48.90;;;;;;5034740;28;19920;-67